Time;durP1;ratioP1;P1;durP2;ratioP2;P2;SDS_P1;SDS_P2;PMS_P1;PMS_P2;Temp;Humidity;BMP_temperature;BMP_pressure;BME280_temperature;BME280_humidity;BME280_pressure;Samples;Min_cycle;Max_cycle;Signal;HPM_P1;HPM_P2
2022/09/01 00:02:15;;;;;;;20.08;12.10;;;23.10;99.90;;;;;;5088703;28;20214;-74
2022/09/01 00:04:44;;;;;;;21.90;12.23;;;23.10;99.90;;;;;;5090858;28;20204;-74
2022/09/01 00:07:12;;;;;;;18.98;12.82;;;23.10;99.90;;;;;;5086101;28;20957;-74
2022/09/01 00:09:40;;;;;;;22.95;12.25;;;23.10;99.90;;;;;;5119492;27;20275;-74
2022/09/01 00:12:08;;;;;;;15.80;11.68;;;23.10;99.90;;;;;;5090472;28;20277;-74
2022/09/01 00:14:39;;;;;;;19.55;11.13;;;23.10;99.90;;;;;;5088508;28;20178;-74
2022/09/01 00:17:10;;;;;;;20.08;11.65;;;23.10;99.90;;;;;;5093321;28;20258;-74
2022/09/01 00:19:38;;;;;;;21.42;12.60;;;23.10;99.90;;;;;;5087261;28;20190;-74
2022/09/01 00:22:06;;;;;;;22.38;12.38;;;23.10;99.90;;;;;;5118040;27;20187;-74
2022/09/01 00:24:33;;;;;;;19.67;11.60;;;23.10;99.90;;;;;;5082251;28;20196;-74
2022/09/01 00:26:59;;;;;;;20.17;11.93;;;23.20;99.90;;;;;;5089049;28;20874;-74
2022/09/01 00:29:26;;;;;;;24.52;12.32;;;23.20;99.90;;;;;;5093668;28;20239;-74
2022/09/01 00:31:53;;;;;;;21.20;12.27;;;23.20;99.90;;;;;;5087179;28;20186;-74
2022/09/01 00:34:20;;;;;;;23.25;12.73;;;23.20;99.90;;;;;;5084740;28;20659;-74
2022/09/01 00:36:47;;;;;;;16.67;12.15;;;23.20;99.90;;;;;;5084361;28;20210;-74
2022/09/01 00:39:14;;;;;;;18.80;11.00;;;23.20;99.90;;;;;;5085195;28;20907;-74
2022/09/01 00:41:43;;;;;;;22.25;12.30;;;23.20;99.90;;;;;;5086584;28;20197;-74
2022/09/01 00:44:17;;;;;;;16.38;11.82;;;23.20;99.90;;;;;;5082660;28;20193;-74
2022/09/01 00:46:50;;;;;;;17.63;12.35;;;23.20;99.90;;;;;;5068022;28;20189;-74
2022/09/01 00:49:34;;;;;;;15.43;11.57;;;23.20;99.90;;;;;;5089163;28;20178;-74
2022/09/01 00:52:15;;;;;;;23.35;12.43;;;23.20;99.90;;;;;;5078303;28;20231;-74
2022/09/01 00:54:47;;;;;;;26.17;12.70;;;23.20;99.90;;;;;;5089445;28;20314;-74
2022/09/01 00:57:15;;;;;;;23.08;12.25;;;23.20;99.90;;;;;;5088097;28;20752;-74
2022/09/01 00:59:55;;;;;;;19.00;12.30;;;23.20;99.90;;;;;;5105494;28;20187;-74
2022/09/01 01:02:21;;;;;;;16.73;11.82;;;23.20;99.90;;;;;;5080782;28;20582;-74
2022/09/01 01:04:51;;;;;;;21.83;11.70;;;23.20;99.90;;;;;;5086192;28;20179;-74
2022/09/01 01:07:21;;;;;;;16.70;11.73;;;23.10;99.90;;;;;;5092813;28;20251;-74
2022/09/01 01:09:50;;;;;;;19.52;12.48;;;23.10;99.90;;;;;;5088402;28;20192;-74
2022/09/01 01:12:17;;;;;;;19.00;11.38;;;23.00;99.90;;;;;;5091223;28;20214;-74
2022/09/01 01:14:51;;;;;;;21.63;11.35;;;22.90;99.90;;;;;;5103186;28;20181;-74
2022/09/01 01:17:20;;;;;;;21.60;12.45;;;22.90;99.90;;;;;;5068874;28;20816;-74
2022/09/01 01:23:04;;;;;;;19.40;11.43;;;22.70;99.90;;;;;;5123722;27;20213;-74
2022/09/01 01:25:49;;;;;;;16.17;11.57;;;22.70;99.90;;;;;;5089493;28;20273;-74
2022/09/01 01:28:34;;;;;;;20.08;11.80;;;22.70;99.90;;;;;;5072773;28;20217;-74
2022/09/01 01:31:21;;;;;;;23.67;11.30;;;22.70;99.90;;;;;;5086277;28;20832;-74
2022/09/01 01:33:53;;;;;;;18.85;11.25;;;22.70;99.90;;;;;;5070884;28;20183;-74
2022/09/01 01:36:32;;;;;;;20.30;12.32;;;22.60;99.90;;;;;;5082578;28;20678;-74
2022/09/01 01:39:05;;;;;;;18.08;11.02;;;22.60;99.90;;;;;;5100819;27;20590;-74
2022/09/01 01:41:34;;;;;;;18.08;11.23;;;22.60;99.90;;;;;;5089111;28;20178;-74
2022/09/01 01:44:04;;;;;;;21.48;12.00;;;22.50;99.90;;;;;;5106209;28;20178;-74
2022/09/01 01:46:34;;;;;;;18.35;11.02;;;22.50;99.90;;;;;;5106203;28;20178;-74
2022/09/01 01:49:03;;;;;;;18.65;10.95;;;22.40;99.90;;;;;;5086840;28;20628;-74
2022/09/01 01:51:31;;;;;;;17.10;10.93;;;22.40;99.90;;;;;;5090288;28;20239;-74
2022/09/01 01:54:02;;;;;;;18.15;10.90;;;22.40;99.90;;;;;;5106316;28;20239;-74
2022/09/01 01:56:28;;;;;;;18.73;11.35;;;22.40;99.90;;;;;;5103026;27;20211;-74
2022/09/01 01:58:56;;;;;;;17.88;11.35;;;22.50;99.90;;;;;;5085220;28;20186;-74
2022/09/01 02:01:30;;;;;;;19.33;11.60;;;22.40;99.90;;;;;;5068904;28;20183;-74
2022/09/01 02:04:02;;;;;;;16.38;12.02;;;22.40;99.90;;;;;;5105860;28;20209;-74
2022/09/01 02:06:33;;;;;;;20.77;10.77;;;22.40;99.90;;;;;;5090578;28;20182;-74
2022/09/01 02:09:02;;;;;;;21.23;11.02;;;22.40;99.90;;;;;;5084271;28;20223;-74
2022/09/01 02:11:36;;;;;;;19.85;11.75;;;22.40;99.90;;;;;;5123501;27;20795;-74
2022/09/01 02:14:06;;;;;;;13.80;10.63;;;22.40;99.90;;;;;;5123329;27;20280;-74
2022/09/01 02:16:34;;;;;;;18.13;11.90;;;22.40;99.90;;;;;;5123015;27;20331;-74
2022/09/01 02:19:06;;;;;;;24.35;11.82;;;22.40;99.90;;;;;;5122538;27;20193;-74
2022/09/01 02:21:32;;;;;;;17.20;11.70;;;22.40;99.90;;;;;;5088577;28;20174;-74
2022/09/01 02:24:04;;;;;;;18.88;11.93;;;22.30;99.90;;;;;;5123097;27;20189;-74
2022/09/01 02:26:37;;;;;;;16.55;11.30;;;22.30;99.90;;;;;;5122830;27;20189;-74
2022/09/01 02:29:08;;;;;;;17.33;12.90;;;22.30;99.90;;;;;;5108583;28;20189;-74
2022/09/01 02:31:39;;;;;;;21.38;12.20;;;22.30;99.90;;;;;;5109346;28;20186;-74
2022/09/01 02:34:09;;;;;;;20.40;12.27;;;22.10;99.90;;;;;;5109114;28;20597;-74
2022/09/01 02:36:41;;;;;;;16.85;12.07;;;22.00;99.90;;;;;;5092035;28;20201;-74
2022/09/01 02:39:07;;;;;;;16.90;11.75;;;21.90;99.90;;;;;;5108262;28;20638;-74
2022/09/01 02:41:33;;;;;;;19.38;13.05;;;21.90;99.90;;;;;;5092390;28;20216;-74
2022/09/01 02:44:01;;;;;;;20.70;11.88;;;21.80;99.90;;;;;;5122725;28;20182;-74
2022/09/01 02:46:28;;;;;;;14.73;12.05;;;21.70;99.90;;;;;;5090368;28;20206;-74
2022/09/01 02:48:56;;;;;;;14.75;12.23;;;21.70;99.90;;;;;;5101724;28;20182;-74
2022/09/01 02:51:26;;;;;;;17.20;12.63;;;21.60;99.90;;;;;;5101954;28;20190;-74
2022/09/01 02:53:53;;;;;;;16.85;12.75;;;21.70;99.90;;;;;;5051686;28;20201;-74
2022/09/01 02:56:26;;;;;;;16.88;12.70;;;21.60;99.90;;;;;;5051150;28;20207;-74
2022/09/01 02:58:53;;;;;;;20.13;12.55;;;21.60;99.90;;;;;;5068907;28;20190;-74
2022/09/01 03:01:28;;;;;;;18.70;11.57;;;21.50;99.90;;;;;;5068083;28;20183;-74
2022/09/01 03:04:04;;;;;;;15.68;12.18;;;21.50;99.90;;;;;;5096453;28;20196;-74
2022/09/01 03:06:33;;;;;;;13.10;11.43;;;21.40;99.90;;;;;;5094263;28;20278;-74
2022/09/01 03:09:00;;;;;;;16.40;11.88;;;21.40;99.90;;;;;;5094984;28;20188;-74
2022/09/01 03:11:30;;;;;;;14.82;12.02;;;21.30;99.90;;;;;;5112415;28;20904;-74
2022/09/01 03:13:57;;;;;;;14.20;11.68;;;21.20;99.90;;;;;;5112926;28;20182;-74
2022/09/01 03:16:26;;;;;;;18.50;13.27;;;21.20;99.90;;;;;;5113032;28;20236;-74
2022/09/01 03:18:53;;;;;;;16.65;12.40;;;21.20;99.90;;;;;;5112230;28;20663;-74
2022/09/01 03:21:22;;;;;;;20.42;11.88;;;21.10;99.90;;;;;;5111620;28;20190;-74
2022/09/01 03:23:50;;;;;;;20.73;12.80;;;21.10;99.90;;;;;;5095481;28;20289;-74
2022/09/01 03:26:20;;;;;;;25.20;13.93;;;21.10;99.90;;;;;;5095004;28;20207;-74
2022/09/01 03:28:50;;;;;;;15.35;13.00;;;21.10;99.90;;;;;;5113554;28;20181;-71
2022/09/01 03:31:17;;;;;;;17.67;12.30;;;21.10;99.90;;;;;;5112431;28;20181;-74
2022/09/01 03:33:44;;;;;;;19.33;12.05;;;21.10;99.90;;;;;;5113874;27;20272;-74
2022/09/01 03:36:17;;;;;;;19.58;12.38;;;21.10;99.90;;;;;;5099062;28;20201;-71
2022/09/01 03:38:49;;;;;;;18.57;11.70;;;21.10;99.90;;;;;;5074338;28;20182;-71
2022/09/01 03:41:18;;;;;;;18.17;12.45;;;21.10;99.90;;;;;;5091659;28;20224;-74
2022/09/01 03:43:46;;;;;;;17.53;12.80;;;21.10;99.90;;;;;;5108938;28;20180;-74
2022/09/01 03:46:23;;;;;;;18.73;11.83;;;21.10;99.90;;;;;;5091571;28;20676;-74
2022/09/01 03:49:00;;;;;;;15.48;12.07;;;21.20;99.90;;;;;;5087568;28;20190;-74
2022/09/01 03:51:29;;;;;;;18.40;12.80;;;21.20;99.90;;;;;;5117303;27;20189;-74
2022/09/01 03:53:58;;;;;;;20.05;12.57;;;21.10;99.90;;;;;;5120257;27;20187;-73
2022/09/01 03:56:27;;;;;;;16.80;12.75;;;21.10;99.90;;;;;;5087890;28;20268;-74
2022/09/01 03:58:59;;;;;;;18.73;12.88;;;21.10;99.90;;;;;;5071076;28;20187;-74
2022/09/01 04:01:30;;;;;;;19.07;12.20;;;21.10;99.90;;;;;;5088837;28;20285;-74
2022/09/01 04:03:56;;;;;;;17.98;12.75;;;21.10;99.90;;;;;;5091517;28;20188;-74
2022/09/01 04:06:23;;;;;;;17.52;13.02;;;21.10;99.90;;;;;;5092892;28;20183;-74
2022/09/01 04:08:55;;;;;;;17.23;13.50;;;21.10;99.90;;;;;;5102169;28;20719;-74
2022/09/01 04:11:22;;;;;;;22.00;13.13;;;21.00;99.90;;;;;;5104591;28;20222;-73
2022/09/01 04:13:50;;;;;;;16.30;12.93;;;21.10;99.90;;;;;;5072465;28;20170;-73
2022/09/01 04:19:18;;;;;;;18.53;12.93;;;21.20;99.90;;;;;;5091070;28;20186;-73
2022/09/01 04:21:53;;;;;;;23.27;14.20;;;21.10;99.90;;;;;;5091336;28;20182;-73
2022/09/01 04:24:23;;;;;;;23.90;12.37;;;21.20;99.90;;;;;;5107474;28;20279;-73
2022/09/01 04:26:51;;;;;;;23.23;13.47;;;21.20;99.90;;;;;;5108198;28;20193;-73
2022/09/01 04:29:26;;;;;;;19.30;13.00;;;21.30;99.90;;;;;;5087341;28;20641;-73
2022/09/01 04:32:14;;;;;;;21.40;13.00;;;21.30;99.90;;;;;;5071135;28;20213;-73
2022/09/01 04:34:41;;;;;;;17.30;12.27;;;21.40;99.90;;;;;;5071945;28;20205;-73
2022/09/01 04:37:14;;;;;;;21.13;13.43;;;21.40;99.90;;;;;;5097192;28;20212;-73
2022/09/01 04:39:47;;;;;;;16.87;13.37;;;21.50;99.90;;;;;;5111592;28;20177;-73
2022/09/01 04:42:13;;;;;;;27.30;13.88;;;21.50;99.90;;;;;;5091176;28;20558;-73
2022/09/01 04:44:39;;;;;;;23.75;13.85;;;21.50;99.90;;;;;;5092823;28;20273;-73
2022/09/01 04:47:09;;;;;;;19.65;14.25;;;21.40;99.90;;;;;;5124649;27;20585;-73
2022/09/01 04:49:36;;;;;;;26.93;14.73;;;21.40;99.90;;;;;;5114835;27;20218;-73
2022/09/01 04:52:03;;;;;;;18.43;13.53;;;21.40;99.90;;;;;;5071381;28;20175;-73
2022/09/01 04:54:33;;;;;;;16.70;14.32;;;21.40;99.90;;;;;;5069669;28;20182;-73
2022/09/01 04:57:00;;;;;;;22.80;13.50;;;21.50;99.90;;;;;;5071156;28;20241;-73
2022/09/01 04:59:28;;;;;;;20.48;14.75;;;21.50;99.90;;;;;;5052661;28;20541;-73
2022/09/01 05:01:56;;;;;;;19.55;14.00;;;21.60;99.90;;;;;;5086918;28;20171;-73
2022/09/01 05:04:26;;;;;;;23.43;14.20;;;21.70;99.90;;;;;;5071309;28;20645;-73
2022/09/01 05:06:59;;;;;;;25.58;14.68;;;21.80;99.90;;;;;;5069849;28;20274;-73
2022/09/01 05:09:29;;;;;;;36.03;15.27;;;21.80;99.90;;;;;;5068519;28;20282;-73
2022/09/01 05:12:07;;;;;;;23.02;14.60;;;21.90;99.90;;;;;;5053364;28;20996;-73
2022/09/01 05:14:33;;;;;;;22.48;14.40;;;21.90;99.90;;;;;;5069929;28;20187;-73
2022/09/01 05:17:09;;;;;;;24.60;13.93;;;22.00;99.90;;;;;;5052950;28;20268;-73
2022/09/01 05:19:39;;;;;;;18.80;13.40;;;22.10;99.90;;;;;;5068637;28;20820;-73
2022/09/01 05:22:09;;;;;;;21.60;14.57;;;22.20;99.90;;;;;;5069724;28;20579;-73
2022/09/01 05:24:36;;;;;;;21.92;14.57;;;22.20;99.90;;;;;;5052007;28;20172;-73
2022/09/01 05:27:07;;;;;;;29.27;15.40;;;22.30;99.90;;;;;;5069210;28;20182;-73
2022/09/01 05:29:37;;;;;;;31.80;15.73;;;22.30;99.90;;;;;;5068576;28;20182;-73
2022/09/01 05:32:07;;;;;;;22.38;15.02;;;22.40;99.90;;;;;;5098179;28;20177;-73
2022/09/01 05:34:36;;;;;;;25.33;14.60;;;22.40;99.90;;;;;;5123936;27;20210;-74
2022/09/01 05:37:05;;;;;;;23.35;15.25;;;22.50;99.90;;;;;;5100432;28;20579;-73
2022/09/01 05:39:32;;;;;;;24.48;14.40;;;22.60;99.90;;;;;;5122737;27;20182;-73
2022/09/01 05:41:59;;;;;;;21.48;14.63;;;22.60;99.90;;;;;;5091245;28;20210;-73
2022/09/01 05:44:27;;;;;;;21.90;14.23;;;22.70;99.90;;;;;;5123476;27;20209;-73
2022/09/01 05:46:58;;;;;;;21.73;14.07;;;22.70;99.90;;;;;;5123922;27;20182;-73
2022/09/01 05:49:27;;;;;;;25.20;14.25;;;22.70;99.90;;;;;;5105559;28;20182;-73
2022/09/01 05:51:56;;;;;;;19.25;12.75;;;22.80;99.90;;;;;;5123541;27;20190;-73
2022/09/01 05:54:26;;;;;;;18.48;13.10;;;22.80;99.90;;;;;;5105858;28;20178;-73
2022/09/01 05:56:57;;;;;;;25.38;13.73;;;22.80;99.90;;;;;;5087347;28;20253;-73
2022/09/01 05:59:25;;;;;;;19.30;12.95;;;22.90;99.90;;;;;;5081072;28;20192;-73
2022/09/01 06:01:52;;;;;;;23.02;13.10;;;23.00;99.90;;;;;;5089354;28;20189;-73
2022/09/01 06:04:19;;;;;;;20.15;13.02;;;23.00;99.90;;;;;;5090681;28;20178;-73
2022/09/01 06:06:52;;;;;;;21.52;13.07;;;23.00;99.90;;;;;;5106531;28;20182;-73
2022/09/01 06:09:19;;;;;;;16.63;12.90;;;23.10;99.90;;;;;;5088250;28;20202;-73
2022/09/01 06:11:47;;;;;;;19.35;12.30;;;23.10;99.90;;;;;;5072376;28;20235;-73
2022/09/01 06:14:15;;;;;;;14.70;11.80;;;23.10;99.90;;;;;;5072618;28;20185;-73
2022/09/01 06:16:42;;;;;;;16.67;10.93;;;23.20;99.90;;;;;;5084212;28;20237;-74
2022/09/01 06:19:11;;;;;;;14.35;11.02;;;23.20;99.90;;;;;;5077363;28;20572;-73
2022/09/01 06:21:41;;;;;;;16.92;10.05;;;23.20;99.90;;;;;;5106162;28;20639;-73
2022/09/01 06:24:08;;;;;;;13.63;9.68;;;23.20;99.90;;;;;;5090324;28;20182;-73
2022/09/01 06:26:38;;;;;;;17.02;9.80;;;23.30;99.90;;;;;;5089039;28;20631;-73
2022/09/01 06:29:14;;;;;;;18.60;10.90;;;23.50;99.90;;;;;;5122445;27;20178;-73
2022/09/01 06:31:44;;;;;;;19.13;10.65;;;23.50;99.90;;;;;;5106181;28;20185;-74
2022/09/01 06:34:17;;;;;;;11.88;9.98;;;23.60;99.90;;;;;;5090585;28;20636;-73
2022/09/01 06:36:47;;;;;;;13.48;9.00;;;23.70;99.90;;;;;;5083678;28;20276;-73
2022/09/01 06:39:19;;;;;;;15.63;10.10;;;23.80;99.90;;;;;;5087621;28;20182;-73
2022/09/01 06:41:51;;;;;;;14.63;9.73;;;23.80;99.90;;;;;;5089065;28;20182;-73
2022/09/01 06:44:21;;;;;;;15.82;10.00;;;23.90;99.90;;;;;;5086388;28;20665;-74
2022/09/01 06:46:50;;;;;;;14.07;9.63;;;24.00;99.90;;;;;;5088783;28;21079;-74
2022/09/01 06:49:20;;;;;;;15.07;9.07;;;24.10;99.90;;;;;;5102643;28;20189;-74
2022/09/01 06:51:48;;;;;;;24.13;10.13;;;24.20;99.90;;;;;;5092972;28;20185;-73
2022/09/01 06:54:15;;;;;;;13.20;9.82;;;24.30;99.90;;;;;;5091159;28;20794;-73
2022/09/01 06:56:41;;;;;;;17.42;9.93;;;24.40;99.90;;;;;;5098811;28;20279;-74
2022/09/01 06:59:11;;;;;;;13.90;9.13;;;24.50;99.90;;;;;;5102211;28;20192;-74
2022/09/01 07:01:41;;;;;;;18.45;9.48;;;24.50;99.90;;;;;;5074829;28;20194;-74
2022/09/01 07:04:08;;;;;;;13.40;9.10;;;24.60;99.90;;;;;;5069195;28;20194;-74
2022/09/01 07:06:35;;;;;;;12.40;7.50;;;24.70;99.90;;;;;;5068769;28;20186;-74
2022/09/01 07:09:02;;;;;;;11.70;7.18;;;24.70;99.90;;;;;;5067912;28;20381;-74
2022/09/01 07:11:33;;;;;;;14.05;7.40;;;24.70;99.90;;;;;;5057237;28;20178;-74
2022/09/01 07:14:04;;;;;;;16.05;7.30;;;24.80;99.90;;;;;;5088905;28;20643;-74
2022/09/01 07:16:39;;;;;;;15.18;6.10;;;24.80;99.90;;;;;;5088986;28;20201;-74
2022/09/01 07:19:13;;;;;;;13.30;6.80;;;24.90;99.90;;;;;;5109213;28;20220;-74
2022/09/01 07:21:42;;;;;;;12.00;6.88;;;24.90;99.90;;;;;;5069767;28;20289;-74
2022/09/01 07:24:11;;;;;;;12.73;5.30;;;25.00;99.90;;;;;;5069874;28;20171;-74
2022/09/01 07:26:40;;;;;;;14.85;5.85;;;25.10;99.90;;;;;;5069982;28;20179;-75
2022/09/01 07:29:08;;;;;;;11.57;5.53;;;25.20;99.90;;;;;;5110344;28;20639;-74
2022/09/01 07:31:41;;;;;;;11.65;5.55;;;25.20;99.90;;;;;;5094663;28;20208;-74
2022/09/01 07:34:13;;;;;;;6.93;4.25;;;25.30;99.90;;;;;;5085496;28;20240;-74
2022/09/01 07:36:44;;;;;;;10.25;4.63;;;25.30;99.90;;;;;;5079337;28;20200;-72
2022/09/01 07:39:12;;;;;;;8.32;4.70;;;25.30;99.90;;;;;;5101287;28;20190;-72
2022/09/01 07:41:41;;;;;;;7.38;3.90;;;25.40;99.90;;;;;;5090697;28;20189;-74
2022/09/01 07:44:11;;;;;;;8.30;4.05;;;25.60;99.90;;;;;;5089093;28;20500;-74
2022/09/01 07:46:38;;;;;;;9.40;4.57;;;25.70;99.90;;;;;;5088431;28;20228;-72
2022/09/01 07:49:05;;;;;;;9.10;4.72;;;25.80;99.90;;;;;;5087203;28;20243;-72
2022/09/01 07:51:32;;;;;;;9.60;4.53;;;25.90;99.90;;;;;;5095747;28;20653;-73
2022/09/01 07:54:01;;;;;;;10.13;4.45;;;26.00;99.90;;;;;;5072509;28;20195;-72
2022/09/01 07:56:29;;;;;;;13.98;6.10;;;26.20;99.90;;;;;;5088117;28;20211;-73
2022/09/01 07:58:58;;;;;;;14.55;6.72;;;26.40;99.90;;;;;;5120352;27;20201;-73
2022/09/01 08:01:27;;;;;;;19.15;6.60;;;26.60;99.90;;;;;;5111527;28;20876;-72
2022/09/01 08:03:58;;;;;;;16.60;7.57;;;26.70;99.90;;;;;;5112181;28;20221;-73
2022/09/01 08:06:27;;;;;;;18.77;7.90;;;26.90;99.90;;;;;;5107820;27;20204;-73
2022/09/01 08:08:59;;;;;;;24.52;7.53;;;26.90;99.90;;;;;;5072660;28;20181;-73
2022/09/01 08:11:30;;;;;;;19.48;6.80;;;26.90;99.90;;;;;;5103924;28;20216;-73
2022/09/01 08:13:58;;;;;;;17.02;7.70;;;26.90;99.90;;;;;;5107804;28;20285;-72
2022/09/01 08:16:30;;;;;;;15.10;6.88;;;27.00;99.90;;;;;;5095282;28;20566;-73
2022/09/01 08:19:03;;;;;;;13.50;6.90;;;27.00;99.90;;;;;;5093008;28;20210;-73
2022/09/01 08:21:29;;;;;;;13.65;7.32;;;27.10;99.90;;;;;;5087876;28;20247;-72
2022/09/01 08:23:56;;;;;;;13.25;6.50;;;27.10;99.90;;;;;;5072036;28;20220;-73
2022/09/01 08:26:25;;;;;;;13.80;7.20;;;27.10;99.90;;;;;;5070871;28;20193;-72
2022/09/01 08:28:53;;;;;;;20.05;7.50;;;27.20;99.90;;;;;;5071705;28;20179;-73
2022/09/01 08:31:21;;;;;;;21.35;7.70;;;27.30;99.90;;;;;;5068989;28;20221;-72
2022/09/01 08:33:49;;;;;;;18.08;7.55;;;27.40;99.90;;;;;;5082137;28;20217;-72
2022/09/01 08:36:17;;;;;;;17.02;7.65;;;27.40;99.90;;;;;;5110718;27;20309;-73
2022/09/01 08:38:44;;;;;;;17.75;7.45;;;27.50;99.90;;;;;;5078255;28;20252;-72
2022/09/01 08:41:28;;;;;;;22.83;7.40;;;27.50;99.90;;;;;;5073739;28;20183;-73
2022/09/01 08:44:18;;;;;;;19.98;7.47;;;27.60;99.90;;;;;;5070244;28;20178;-74
2022/09/01 08:46:44;;;;;;;11.30;6.80;;;27.60;99.90;;;;;;5084555;28;20221;-72
2022/09/01 08:49:30;;;;;;;25.98;8.65;;;27.70;99.90;;;;;;5089668;28;20197;-73
2022/09/01 08:52:05;;;;;;;15.52;6.30;;;27.70;99.90;;;;;;5090345;28;20243;-72
2022/09/01 08:54:43;;;;;;;28.45;7.25;;;27.80;99.90;;;;;;5085741;28;20257;-73
2022/09/01 08:57:31;;;;;;;24.08;8.75;;;27.80;99.90;;;;;;5079181;28;20194;-73
2022/09/01 08:59:58;;;;;;;28.52;7.78;;;27.80;99.90;;;;;;5090224;28;20308;-74
2022/09/01 09:02:53;;;;;;;16.52;7.22;;;28.00;99.90;;;;;;5091974;28;20185;-72
2022/09/01 09:06:11;;;;;;;13.48;6.70;;;28.00;99.90;;;;;;5089596;28;20269;-72
2022/09/01 09:08:50;;;;;;;13.93;6.85;;;28.00;99.90;;;;;;5116712;27;20281;-73
2022/09/01 09:12:09;;;;;;;21.90;6.55;;;28.20;99.90;;;;;;5083816;28;20211;-72
2022/09/01 09:15:26;;;;;;;16.88;7.38;;;28.30;99.90;;;;;;5089590;28;20193;-72
2022/09/01 09:18:28;;;;;;;15.65;6.90;;;28.40;99.90;;;;;;5095579;28;20201;-71
2022/09/01 09:21:03;;;;;;;17.40;7.15;;;28.50;99.90;;;;;;5110027;28;20902;-72
2022/09/01 09:23:39;;;;;;;20.65;7.03;;;28.70;99.90;;;;;;5090770;28;20254;-72
2022/09/01 09:26:06;;;;;;;17.75;7.07;;;28.80;99.90;;;;;;5080991;28;20181;-73
2022/09/01 09:28:32;;;;;;;16.65;6.63;;;28.90;99.90;;;;;;5104391;28;20289;-73
2022/09/01 09:31:42;;;;;;;20.15;7.68;;;28.90;99.90;;;;;;5111165;28;20227;-72
2022/09/01 09:34:31;;;;;;;20.15;6.95;;;28.80;99.90;;;;;;5093602;28;20181;-73
2022/09/01 09:37:28;;;;;;;17.40;6.90;;;29.00;99.90;;;;;;5084921;28;20288;-73
2022/09/01 09:40:13;;;;;;;18.63;6.70;;;29.10;99.90;;;;;;5118145;27;20678;-74
2022/09/01 09:43:00;;;;;;;15.43;7.00;;;29.40;99.90;;;;;;5089776;28;20206;-73
2022/09/01 09:45:37;;;;;;;15.23;6.32;;;29.30;99.90;;;;;;5091632;28;20300;-74
2022/09/01 09:48:30;;;;;;;17.10;6.93;;;29.40;99.90;;;;;;5090113;28;20562;-73
2022/09/01 09:51:25;;;;;;;17.73;6.63;;;29.40;99.90;;;;;;5089604;28;20182;-73
2022/09/01 09:53:51;;;;;;;11.82;5.75;;;29.60;99.90;;;;;;5088951;28;20182;-72
2022/09/01 09:56:24;;;;;;;16.95;6.78;;;29.90;99.90;;;;;;5085912;28;20209;-73
2022/09/01 09:58:52;;;;;;;13.88;6.15;;;30.10;99.90;;;;;;5092260;28;20178;-72
2022/09/01 10:01:22;;;;;;;13.15;5.82;;;30.10;99.90;;;;;;5090384;28;20264;-72
2022/09/01 10:03:55;;;;;;;15.07;6.40;;;30.10;99.90;;;;;;5090900;28;20670;-73
2022/09/01 10:06:37;;;;;;;15.80;6.43;;;30.20;99.90;;;;;;5105973;28;20264;-72
2022/09/01 10:09:34;;;;;;;16.85;6.38;;;30.20;99.90;;;;;;5089873;28;20174;-73
2022/09/01 10:12:02;;;;;;;13.13;6.32;;;30.50;99.90;;;;;;5088757;28;20186;-72
2022/09/01 10:14:53;;;;;;;14.35;6.15;;;30.50;99.90;;;;;;5078014;28;20310;-73
2022/09/01 10:17:43;;;;;;;20.38;6.80;;;30.50;99.90;;;;;;5068369;28;20183;-72
2022/09/01 10:20:21;;;;;;;15.55;6.10;;;30.90;99.90;;;;;;5076756;28;20235;-73
2022/09/01 10:22:49;;;;;;;19.20;6.68;;;31.00;99.90;;;;;;5092832;28;20201;-73
2022/09/01 10:25:31;;;;;;;17.42;6.57;;;30.70;99.90;;;;;;5085818;28;20187;-73
2022/09/01 10:28:23;;;;;;;13.15;6.13;;;30.50;99.90;;;;;;5072661;28;20182;-73
2022/09/01 10:30:53;;;;;;;11.98;6.35;;;30.50;99.90;;;;;;5090489;28;20189;-73
2022/09/01 10:33:21;;;;;;;15.48;6.07;;;30.40;99.90;;;;;;5105743;28;20192;-73
2022/09/01 10:35:52;;;;;;;15.10;6.43;;;30.50;99.90;;;;;;5109034;28;20293;-73
2022/09/01 10:38:27;;;;;;;15.65;7.13;;;30.30;99.90;;;;;;5087897;28;20189;-73
2022/09/01 10:41:08;;;;;;;18.25;6.60;;;30.20;99.90;;;;;;5088744;28;20192;-73
2022/09/01 10:43:49;;;;;;;18.13;7.00;;;30.40;99.90;;;;;;5091394;28;20238;-73
2022/09/01 10:46:22;;;;;;;12.82;6.65;;;30.50;99.90;;;;;;5098937;28;20201;-73
2022/09/01 10:48:55;;;;;;;17.95;6.88;;;30.50;99.90;;;;;;5092982;28;20727;-73
2022/09/01 10:51:22;;;;;;;17.60;7.38;;;30.40;99.90;;;;;;5103804;28;20194;-74
2022/09/01 10:54:00;;;;;;;16.48;6.60;;;30.40;99.90;;;;;;5108384;28;20678;-73
2022/09/01 10:56:41;;;;;;;16.77;6.22;;;30.40;99.90;;;;;;5088389;28;20667;-73
2022/09/01 10:59:25;;;;;;;16.25;6.65;;;30.30;99.90;;;;;;5088435;28;20197;-72
2022/09/01 11:01:52;;;;;;;18.10;6.50;;;30.00;99.90;;;;;;5098883;28;20204;-73
2022/09/01 11:04:45;;;;;;;13.45;6.40;;;30.10;99.90;;;;;;5080654;28;20265;-71
2022/09/01 11:07:18;;;;;;;17.92;6.90;;;30.10;99.90;;;;;;5130347;27;20184;-72
2022/09/01 11:10:27;;;;;;;13.65;6.03;;;30.10;99.90;;;;;;5072065;28;20193;-72
2022/09/01 11:13:41;;;;;;;14.70;6.35;;;30.10;99.90;;;;;;5069308;28;20202;-72
2022/09/01 11:16:38;;;;;;;14.30;6.13;;;30.10;99.90;;;;;;5068551;28;20260;-72
2022/09/01 11:19:32;;;;;;;20.25;6.95;;;30.10;99.90;;;;;;5084658;28;20189;-73
2022/09/01 11:22:08;;;;;;;18.48;6.63;;;30.10;99.90;;;;;;5077111;28;20183;-72
2022/09/01 11:24:37;;;;;;;15.30;5.97;;;30.00;99.90;;;;;;5110961;28;20213;-72
2022/09/01 11:27:11;;;;;;;16.15;6.82;;;29.90;99.90;;;;;;5091381;28;20171;-72
2022/09/01 11:30:06;;;;;;;12.00;6.43;;;29.90;99.90;;;;;;5098482;28;20837;-72
2022/09/01 11:32:36;;;;;;;15.80;6.68;;;30.00;99.90;;;;;;5056105;28;20179;-72
2022/09/01 11:35:13;;;;;;;16.50;6.93;;;30.00;99.90;;;;;;5074736;28;20182;-72
2022/09/01 11:37:40;;;;;;;16.88;7.00;;;30.10;99.90;;;;;;5089808;28;20182;-72
2022/09/01 11:40:08;;;;;;;15.90;7.38;;;30.00;99.90;;;;;;5103076;27;20179;-72
2022/09/01 11:42:43;;;;;;;15.25;6.63;;;30.00;99.90;;;;;;5115623;27;20706;-72
2022/09/01 11:45:31;;;;;;;16.45;7.18;;;30.00;99.90;;;;;;5086897;28;20239;-72
2022/09/01 11:48:13;;;;;;;14.95;6.70;;;30.10;99.90;;;;;;5092796;28;20228;-72
2022/09/01 11:50:41;;;;;;;16.80;7.32;;;30.10;99.90;;;;;;5104910;28;20201;-72
2022/09/01 11:53:21;;;;;;;17.02;7.30;;;30.00;99.90;;;;;;5078968;28;20183;-72
2022/09/01 11:55:52;;;;;;;18.23;7.32;;;30.00;99.90;;;;;;5118842;27;20283;-72
2022/09/01 11:58:27;;;;;;;20.40;6.60;;;29.80;99.90;;;;;;5084834;28;20929;-71
2022/09/01 12:01:19;;;;;;;16.23;6.65;;;29.70;99.90;;;;;;5088334;28;20185;-72
2022/09/01 12:03:48;;;;;;;13.20;6.32;;;29.80;99.90;;;;;;5082913;28;20939;-73
2022/09/01 12:06:31;;;;;;;15.63;6.90;;;29.90;99.90;;;;;;5067538;28;20297;-72
2022/09/01 12:09:04;;;;;;;11.02;6.18;;;29.90;99.90;;;;;;5063336;28;20239;-72
2022/09/01 12:11:34;;;;;;;13.45;6.63;;;29.90;99.90;;;;;;5105157;27;20182;-71
2022/09/01 12:14:08;;;;;;;19.05;7.10;;;29.90;99.90;;;;;;5088939;28;20331;-72
2022/09/01 12:16:38;;;;;;;17.35;6.53;;;29.80;99.90;;;;;;5092356;28;20258;-73
2022/09/01 12:19:06;;;;;;;16.77;6.68;;;29.80;99.90;;;;;;5097647;28;20178;-72
2022/09/01 12:21:42;;;;;;;14.45;6.38;;;29.80;99.90;;;;;;5086645;28;20301;-72
2022/09/01 12:24:23;;;;;;;20.00;7.25;;;29.80;99.90;;;;;;5071627;28;20267;-72
2022/09/01 12:26:57;;;;;;;15.18;7.22;;;29.80;99.90;;;;;;5090092;28;20911;-72
2022/09/01 12:29:24;;;;;;;12.93;6.75;;;29.80;99.90;;;;;;5080732;28;20608;-72
2022/09/01 12:31:53;;;;;;;12.50;6.43;;;29.80;99.90;;;;;;5072439;28;20178;-72
2022/09/01 12:34:27;;;;;;;15.52;6.78;;;29.80;99.90;;;;;;5085961;28;20239;-72
2022/09/01 12:37:14;;;;;;;14.70;6.55;;;29.80;99.90;;;;;;5113949;27;20211;-72
2022/09/01 12:39:58;;;;;;;13.80;6.57;;;29.80;99.90;;;;;;5113248;27;20189;-72
2022/09/01 12:42:32;;;;;;;16.73;6.47;;;29.70;99.90;;;;;;5089213;28;20193;-72
2022/09/01 12:45:07;;;;;;;18.55;6.65;;;29.70;99.90;;;;;;5086757;28;20186;-72
2022/09/01 12:47:46;;;;;;;12.07;5.97;;;29.90;99.90;;;;;;5101062;28;20190;-72
2022/09/01 12:50:12;;;;;;;10.57;6.15;;;29.80;99.90;;;;;;5073149;28;20182;-72
2022/09/01 12:53:15;;;;;;;12.60;5.95;;;29.80;99.90;;;;;;5059824;28;20195;-72
2022/09/01 12:56:25;;;;;;;16.05;6.72;;;29.70;99.90;;;;;;5060828;28;20194;-72
2022/09/01 12:59:23;;;;;;;20.75;7.07;;;29.70;99.90;;;;;;5036715;28;20193;-72
2022/09/01 13:01:51;;;;;;;14.63;7.93;;;29.50;99.90;;;;;;5060216;28;20183;-72
2022/09/01 13:04:29;;;;;;;19.13;7.00;;;29.50;99.90;;;;;;5070497;28;20670;-72
2022/09/01 13:07:04;;;;;;;15.77;6.97;;;29.40;99.90;;;;;;5092196;28;20186;-72
2022/09/01 13:09:32;;;;;;;18.75;7.40;;;29.50;99.90;;;;;;5074901;28;20194;-72
2022/09/01 13:12:20;;;;;;;15.95;7.50;;;29.40;99.90;;;;;;5102537;27;20266;-72